sensor_id;sensor_type;location;lat;lon;timestamp;P1;durP1;ratioP1;P2;durP2;ratioP2
11807;SDS011;5961;42.640;23.380;2023-03-17T00:02:20;8.53;;;6.73;;
11807;SDS011;5961;42.640;23.380;2023-03-17T00:04:48;7.37;;;6.10;;
11807;SDS011;5961;42.640;23.380;2023-03-17T00:07:16;7.10;;;5.93;;
11807;SDS011;5961;42.640;23.380;2023-03-17T00:09:43;7.50;;;6.53;;
11807;SDS011;5961;42.640;23.380;2023-03-17T00:12:10;7.77;;;6.17;;
11807;SDS011;5961;42.640;23.380;2023-03-17T00:14:39;8.47;;;5.97;;
11807;SDS011;5961;42.640;23.380;2023-03-17T00:17:08;7.63;;;6.30;;
11807;SDS011;5961;42.640;23.380;2023-03-17T00:19:38;7.40;;;6.40;;
11807;SDS011;5961;42.640;23.380;2023-03-17T00:22:11;7.43;;;5.80;;
11807;SDS011;5961;42.640;23.380;2023-03-17T00:24:41;7.37;;;5.90;;
11807;SDS011;5961;42.640;23.380;2023-03-17T00:27:09;7.60;;;6.00;;
11807;SDS011;5961;42.640;23.380;2023-03-17T00:29:39;7.63;;;6.00;;
11807;SDS011;5961;42.640;23.380;2023-03-17T00:32:08;7.00;;;6.20;;
11807;SDS011;5961;42.640;23.380;2023-03-17T00:34:42;7.50;;;6.27;;
11807;SDS011;5961;42.640;23.380;2023-03-17T00:37:09;6.93;;;6.20;;
11807;SDS011;5961;42.640;23.380;2023-03-17T00:39:38;6.80;;;6.00;;
11807;SDS011;5961;42.640;23.380;2023-03-17T00:42:05;7.50;;;6.40;;
11807;SDS011;5961;42.640;23.380;2023-03-17T00:44:31;6.90;;;6.13;;
11807;SDS011;5961;42.640;23.380;2023-03-17T00:47:00;7.23;;;5.83;;
11807;SDS011;5961;42.640;23.380;2023-03-17T00:49:27;10.23;;;6.50;;
11807;SDS011;5961;42.640;23.380;2023-03-17T00:51:54;7.53;;;5.87;;
11807;SDS011;5961;42.640;23.380;2023-03-17T00:54:20;8.97;;;6.30;;
11807;SDS011;5961;42.640;23.380;2023-03-17T00:56:48;6.87;;;6.17;;
11807;SDS011;5961;42.640;23.380;2023-03-17T00:59:17;7.93;;;6.10;;
11807;SDS011;5961;42.640;23.380;2023-03-17T01:01:49;7.73;;;6.50;;
11807;SDS011;5961;42.640;23.380;2023-03-17T01:04:17;7.50;;;6.20;;
11807;SDS011;5961;42.640;23.380;2023-03-17T01:06:44;9.60;;;6.10;;
11807;SDS011;5961;42.640;23.380;2023-03-17T01:09:12;7.33;;;6.07;;
11807;SDS011;5961;42.640;23.380;2023-03-17T01:11:40;7.53;;;6.43;;
11807;SDS011;5961;42.640;23.380;2023-03-17T01:14:08;10.10;;;6.70;;
11807;SDS011;5961;42.640;23.380;2023-03-17T01:16:35;7.90;;;6.30;;
11807;SDS011;5961;42.640;23.380;2023-03-17T01:19:01;7.63;;;6.10;;
11807;SDS011;5961;42.640;23.380;2023-03-17T01:21:30;6.80;;;6.10;;
11807;SDS011;5961;42.640;23.380;2023-03-17T01:23:56;7.33;;;5.80;;
11807;SDS011;5961;42.640;23.380;2023-03-17T01:26:23;8.43;;;6.27;;
11807;SDS011;5961;42.640;23.380;2023-03-17T01:28:50;8.23;;;6.27;;
11807;SDS011;5961;42.640;23.380;2023-03-17T01:31:16;9.37;;;6.50;;
11807;SDS011;5961;42.640;23.380;2023-03-17T01:33:43;8.57;;;6.17;;
11807;SDS011;5961;42.640;23.380;2023-03-17T01:36:10;7.77;;;6.50;;
11807;SDS011;5961;42.640;23.380;2023-03-17T01:38:38;8.90;;;6.73;;
11807;SDS011;5961;42.640;23.380;2023-03-17T01:41:05;6.77;;;6.03;;
11807;SDS011;5961;42.640;23.380;2023-03-17T01:43:32;8.10;;;6.33;;
11807;SDS011;5961;42.640;23.380;2023-03-17T01:49:04;7.23;;;5.97;;
11807;SDS011;5961;42.640;23.380;2023-03-17T01:51:35;8.10;;;6.20;;
11807;SDS011;5961;42.640;23.380;2023-03-17T01:54:10;8.80;;;6.50;;
11807;SDS011;5961;42.640;23.380;2023-03-17T01:56:40;7.23;;;5.80;;
11807;SDS011;5961;42.640;23.380;2023-03-17T01:59:09;7.50;;;6.43;;
11807;SDS011;5961;42.640;23.380;2023-03-17T02:01:42;8.77;;;6.33;;
11807;SDS011;5961;42.640;23.380;2023-03-17T02:04:13;6.53;;;5.60;;
11807;SDS011;5961;42.640;23.380;2023-03-17T02:06:41;7.63;;;5.77;;
11807;SDS011;5961;42.640;23.380;2023-03-17T02:09:10;8.20;;;5.90;;
11807;SDS011;5961;42.640;23.380;2023-03-17T02:11:37;6.70;;;5.97;;
11807;SDS011;5961;42.640;23.380;2023-03-17T02:14:04;6.87;;;5.83;;
11807;SDS011;5961;42.640;23.380;2023-03-17T02:16:31;8.37;;;6.63;;
11807;SDS011;5961;42.640;23.380;2023-03-17T02:18:58;7.47;;;5.97;;
11807;SDS011;5961;42.640;23.380;2023-03-17T02:21:30;6.30;;;5.37;;
11807;SDS011;5961;42.640;23.380;2023-03-17T02:24:03;6.50;;;5.67;;
11807;SDS011;5961;42.640;23.380;2023-03-17T02:26:33;7.57;;;5.80;;
11807;SDS011;5961;42.640;23.380;2023-03-17T02:29:01;7.33;;;5.20;;
11807;SDS011;5961;42.640;23.380;2023-03-17T02:31:29;6.90;;;5.80;;
11807;SDS011;5961;42.640;23.380;2023-03-17T02:33:56;6.97;;;5.87;;
11807;SDS011;5961;42.640;23.380;2023-03-17T02:36:22;6.67;;;5.53;;
11807;SDS011;5961;42.640;23.380;2023-03-17T02:38:51;6.50;;;5.17;;
11807;SDS011;5961;42.640;23.380;2023-03-17T02:41:18;6.07;;;5.37;;
11807;SDS011;5961;42.640;23.380;2023-03-17T02:43:45;5.83;;;4.90;;
11807;SDS011;5961;42.640;23.380;2023-03-17T02:46:11;6.20;;;5.40;;
11807;SDS011;5961;42.640;23.380;2023-03-17T02:48:38;5.60;;;4.93;;
11807;SDS011;5961;42.640;23.380;2023-03-17T02:51:05;6.77;;;4.90;;
11807;SDS011;5961;42.640;23.380;2023-03-17T02:53:32;7.53;;;4.70;;
11807;SDS011;5961;42.640;23.380;2023-03-17T02:56:00;6.67;;;4.87;;
11807;SDS011;5961;42.640;23.380;2023-03-17T02:58:27;5.53;;;4.60;;
11807;SDS011;5961;42.640;23.380;2023-03-17T03:00:54;4.40;;;3.90;;
11807;SDS011;5961;42.640;23.380;2023-03-17T03:03:20;5.57;;;4.90;;
11807;SDS011;5961;42.640;23.380;2023-03-17T03:05:47;5.43;;;4.70;;
11807;SDS011;5961;42.640;23.380;2023-03-17T03:08:15;6.10;;;4.97;;
11807;SDS011;5961;42.640;23.380;2023-03-17T03:10:41;6.10;;;4.73;;
11807;SDS011;5961;42.640;23.380;2023-03-17T03:13:10;5.57;;;5.00;;
11807;SDS011;5961;42.640;23.380;2023-03-17T03:15:39;4.90;;;4.17;;
11807;SDS011;5961;42.640;23.380;2023-03-17T03:18:06;4.97;;;4.23;;
11807;SDS011;5961;42.640;23.380;2023-03-17T03:20:33;4.73;;;4.20;;
11807;SDS011;5961;42.640;23.380;2023-03-17T03:23:00;5.37;;;4.17;;
11807;SDS011;5961;42.640;23.380;2023-03-17T03:25:28;4.97;;;4.47;;
11807;SDS011;5961;42.640;23.380;2023-03-17T03:27:54;5.70;;;4.17;;
11807;SDS011;5961;42.640;23.380;2023-03-17T03:30:22;6.17;;;5.07;;
11807;SDS011;5961;42.640;23.380;2023-03-17T03:32:49;5.97;;;4.93;;
11807;SDS011;5961;42.640;23.380;2023-03-17T03:35:16;5.57;;;4.90;;
11807;SDS011;5961;42.640;23.380;2023-03-17T03:37:43;5.43;;;4.40;;
11807;SDS011;5961;42.640;23.380;2023-03-17T03:40:10;5.00;;;4.50;;
11807;SDS011;5961;42.640;23.380;2023-03-17T03:42:37;5.07;;;4.10;;
11807;SDS011;5961;42.640;23.380;2023-03-17T03:45:04;4.53;;;4.03;;
11807;SDS011;5961;42.640;23.380;2023-03-17T03:47:33;4.83;;;4.20;;
11807;SDS011;5961;42.640;23.380;2023-03-17T03:49:59;5.43;;;4.60;;
11807;SDS011;5961;42.640;23.380;2023-03-17T03:52:26;5.10;;;4.60;;
11807;SDS011;5961;42.640;23.380;2023-03-17T03:54:53;6.20;;;4.90;;
11807;SDS011;5961;42.640;23.380;2023-03-17T03:57:20;5.87;;;4.87;;
11807;SDS011;5961;42.640;23.380;2023-03-17T03:59:46;5.43;;;4.57;;
11807;SDS011;5961;42.640;23.380;2023-03-17T04:02:13;5.43;;;4.90;;
11807;SDS011;5961;42.640;23.380;2023-03-17T04:04:42;6.43;;;5.40;;
11807;SDS011;5961;42.640;23.380;2023-03-17T04:07:10;6.83;;;5.60;;
11807;SDS011;5961;42.640;23.380;2023-03-17T04:09:37;6.97;;;5.83;;
11807;SDS011;5961;42.640;23.380;2023-03-17T04:12:04;7.80;;;5.87;;
11807;SDS011;5961;42.640;23.380;2023-03-17T04:14:32;6.83;;;5.63;;
11807;SDS011;5961;42.640;23.380;2023-03-17T04:16:59;6.63;;;5.67;;
11807;SDS011;5961;42.640;23.380;2023-03-17T04:19:25;8.23;;;6.03;;
11807;SDS011;5961;42.640;23.380;2023-03-17T04:21:54;7.43;;;5.93;;
11807;SDS011;5961;42.640;23.380;2023-03-17T04:24:20;6.93;;;5.90;;
11807;SDS011;5961;42.640;23.380;2023-03-17T04:26:47;7.20;;;6.10;;
11807;SDS011;5961;42.640;23.380;2023-03-17T04:29:14;10.67;;;6.40;;
11807;SDS011;5961;42.640;23.380;2023-03-17T04:31:41;6.63;;;5.50;;
11807;SDS011;5961;42.640;23.380;2023-03-17T04:34:09;8.00;;;5.50;;
11807;SDS011;5961;42.640;23.380;2023-03-17T04:36:39;7.47;;;5.77;;
11807;SDS011;5961;42.640;23.380;2023-03-17T04:39:08;6.73;;;5.40;;
11807;SDS011;5961;42.640;23.380;2023-03-17T04:41:35;6.93;;;5.30;;
11807;SDS011;5961;42.640;23.380;2023-03-17T04:44:02;6.60;;;5.40;;
11807;SDS011;5961;42.640;23.380;2023-03-17T04:46:29;6.23;;;5.60;;
11807;SDS011;5961;42.640;23.380;2023-03-17T04:48:56;8.30;;;5.70;;
11807;SDS011;5961;42.640;23.380;2023-03-17T04:51:23;8.13;;;5.73;;
11807;SDS011;5961;42.640;23.380;2023-03-17T04:53:50;7.97;;;5.67;;
11807;SDS011;5961;42.640;23.380;2023-03-17T04:56:18;6.30;;;5.43;;
11807;SDS011;5961;42.640;23.380;2023-03-17T04:58:45;7.93;;;5.67;;
11807;SDS011;5961;42.640;23.380;2023-03-17T05:01:11;6.10;;;5.07;;
11807;SDS011;5961;42.640;23.380;2023-03-17T05:03:38;5.83;;;5.13;;
11807;SDS011;5961;42.640;23.380;2023-03-17T05:06:05;7.63;;;5.63;;
11807;SDS011;5961;42.640;23.380;2023-03-17T05:08:32;6.13;;;5.37;;
11807;SDS011;5961;42.640;23.380;2023-03-17T05:10:59;7.33;;;5.30;;
11807;SDS011;5961;42.640;23.380;2023-03-17T05:13:27;7.63;;;5.20;;
11807;SDS011;5961;42.640;23.380;2023-03-17T05:15:54;6.80;;;5.37;;
11807;SDS011;5961;42.640;23.380;2023-03-17T05:18:23;6.20;;;5.30;;
11807;SDS011;5961;42.640;23.380;2023-03-17T05:20:50;6.23;;;5.53;;
11807;SDS011;5961;42.640;23.380;2023-03-17T05:23:17;8.77;;;6.03;;
11807;SDS011;5961;42.640;23.380;2023-03-17T05:25:44;8.20;;;6.00;;
11807;SDS011;5961;42.640;23.380;2023-03-17T05:28:12;6.23;;;5.20;;
11807;SDS011;5961;42.640;23.380;2023-03-17T05:30:40;7.07;;;4.80;;
11807;SDS011;5961;42.640;23.380;2023-03-17T05:33:08;8.70;;;5.37;;
11807;SDS011;5961;42.640;23.380;2023-03-17T05:35:34;9.07;;;6.60;;
11807;SDS011;5961;42.640;23.380;2023-03-17T05:38:01;8.60;;;6.43;;
11807;SDS011;5961;42.640;23.380;2023-03-17T05:40:28;9.23;;;6.03;;
11807;SDS011;5961;42.640;23.380;2023-03-17T05:42:55;7.70;;;6.20;;
11807;SDS011;5961;42.640;23.380;2023-03-17T05:45:21;8.20;;;6.30;;
11807;SDS011;5961;42.640;23.380;2023-03-17T05:47:49;7.30;;;5.63;;
11807;SDS011;5961;42.640;23.380;2023-03-17T05:50:16;7.80;;;5.50;;
11807;SDS011;5961;42.640;23.380;2023-03-17T05:52:43;7.50;;;5.47;;
11807;SDS011;5961;42.640;23.380;2023-03-17T05:55:11;8.67;;;6.40;;
11807;SDS011;5961;42.640;23.380;2023-03-17T05:57:38;6.17;;;5.43;;
11807;SDS011;5961;42.640;23.380;2023-03-17T06:00:06;6.47;;;5.80;;
11807;SDS011;5961;42.640;23.380;2023-03-17T06:02:34;7.07;;;6.10;;
11807;SDS011;5961;42.640;23.380;2023-03-17T06:05:02;7.57;;;5.60;;
11807;SDS011;5961;42.640;23.380;2023-03-17T06:07:29;6.73;;;5.43;;
11807;SDS011;5961;42.640;23.380;2023-03-17T06:09:56;8.53;;;5.47;;
11807;SDS011;5961;42.640;23.380;2023-03-17T06:12:22;7.07;;;5.53;;
11807;SDS011;5961;42.640;23.380;2023-03-17T06:14:49;7.23;;;5.67;;
11807;SDS011;5961;42.640;23.380;2023-03-17T06:17:16;7.07;;;5.57;;
11807;SDS011;5961;42.640;23.380;2023-03-17T06:19:43;7.83;;;5.93;;
11807;SDS011;5961;42.640;23.380;2023-03-17T06:22:12;7.27;;;6.13;;
11807;SDS011;5961;42.640;23.380;2023-03-17T06:24:38;8.57;;;5.97;;
11807;SDS011;5961;42.640;23.380;2023-03-17T06:27:05;9.03;;;5.87;;
11807;SDS011;5961;42.640;23.380;2023-03-17T06:29:35;7.23;;;5.70;;
11807;SDS011;5961;42.640;23.380;2023-03-17T06:32:02;6.67;;;5.97;;
11807;SDS011;5961;42.640;23.380;2023-03-17T06:34:29;9.43;;;6.03;;
11807;SDS011;5961;42.640;23.380;2023-03-17T06:36:56;7.60;;;5.90;;
11807;SDS011;5961;42.640;23.380;2023-03-17T06:39:25;7.23;;;5.80;;
11807;SDS011;5961;42.640;23.380;2023-03-17T06:41:52;9.13;;;5.63;;
11807;SDS011;5961;42.640;23.380;2023-03-17T06:44:18;7.27;;;5.10;;
11807;SDS011;5961;42.640;23.380;2023-03-17T06:46:45;6.70;;;5.60;;
11807;SDS011;5961;42.640;23.380;2023-03-17T06:49:12;6.83;;;5.80;;
11807;SDS011;5961;42.640;23.380;2023-03-17T06:51:39;9.47;;;5.00;;
11807;SDS011;5961;42.640;23.380;2023-03-17T06:54:06;7.20;;;5.37;;
11807;SDS011;5961;42.640;23.380;2023-03-17T06:56:34;5.53;;;4.70;;
11807;SDS011;5961;42.640;23.380;2023-03-17T06:59:01;6.73;;;5.80;;
11807;SDS011;5961;42.640;23.380;2023-03-17T07:01:29;6.53;;;5.57;;
11807;SDS011;5961;42.640;23.380;2023-03-17T07:03:56;5.87;;;5.27;;
11807;SDS011;5961;42.640;23.380;2023-03-17T07:06:23;7.20;;;5.67;;
11807;SDS011;5961;42.640;23.380;2023-03-17T07:08:50;6.50;;;5.20;;
11807;SDS011;5961;42.640;23.380;2023-03-17T07:11:17;5.97;;;4.70;;
11807;SDS011;5961;42.640;23.380;2023-03-17T07:13:45;5.73;;;4.33;;
11807;SDS011;5961;42.640;23.380;2023-03-17T07:16:12;8.80;;;5.40;;
11807;SDS011;5961;42.640;23.380;2023-03-17T07:18:39;10.00;;;6.60;;
11807;SDS011;5961;42.640;23.380;2023-03-17T07:21:06;8.73;;;5.33;;
11807;SDS011;5961;42.640;23.380;2023-03-17T07:23:33;8.67;;;5.37;;
11807;SDS011;5961;42.640;23.380;2023-03-17T07:26:00;9.03;;;5.63;;
11807;SDS011;5961;42.640;23.380;2023-03-17T07:28:28;6.93;;;5.33;;
11807;SDS011;5961;42.640;23.380;2023-03-17T07:30:56;8.90;;;6.13;;
11807;SDS011;5961;42.640;23.380;2023-03-17T07:33:24;7.70;;;5.80;;
11807;SDS011;5961;42.640;23.380;2023-03-17T07:35:51;8.30;;;6.13;;
11807;SDS011;5961;42.640;23.380;2023-03-17T07:38:18;6.90;;;5.83;;
11807;SDS011;5961;42.640;23.380;2023-03-17T07:40:45;7.53;;;5.77;;
11807;SDS011;5961;42.640;23.380;2023-03-17T07:43:13;7.80;;;5.53;;
11807;SDS011;5961;42.640;23.380;2023-03-17T07:45:40;8.30;;;6.13;;
11807;SDS011;5961;42.640;23.380;2023-03-17T07:48:08;8.20;;;6.23;;
11807;SDS011;5961;42.640;23.380;2023-03-17T07:50:35;7.90;;;5.83;;
11807;SDS011;5961;42.640;23.380;2023-03-17T07:53:02;8.60;;;6.47;;
11807;SDS011;5961;42.640;23.380;2023-03-17T07:55:29;9.83;;;6.40;;
11807;SDS011;5961;42.640;23.380;2023-03-17T07:57:57;8.80;;;6.40;;
11807;SDS011;5961;42.640;23.380;2023-03-17T08:00:24;6.63;;;5.60;;
11807;SDS011;5961;42.640;23.380;2023-03-17T08:02:53;7.57;;;5.90;;
11807;SDS011;5961;42.640;23.380;2023-03-17T08:05:21;7.90;;;5.90;;
11807;SDS011;5961;42.640;23.380;2023-03-17T08:07:49;8.03;;;5.60;;
11807;SDS011;5961;42.640;23.380;2023-03-17T08:10:15;9.37;;;5.63;;
11807;SDS011;5961;42.640;23.380;2023-03-17T08:12:42;7.80;;;5.40;;
11807;SDS011;5961;42.640;23.380;2023-03-17T08:15:10;8.93;;;6.60;;
11807;SDS011;5961;42.640;23.380;2023-03-17T08:17:37;8.43;;;5.93;;
11807;SDS011;5961;42.640;23.380;2023-03-17T08:20:04;8.57;;;6.20;;
11807;SDS011;5961;42.640;23.380;2023-03-17T08:22:33;8.53;;;5.90;;
11807;SDS011;5961;42.640;23.380;2023-03-17T08:25:00;7.50;;;6.03;;
11807;SDS011;5961;42.640;23.380;2023-03-17T08:27:27;8.47;;;5.87;;
11807;SDS011;5961;42.640;23.380;2023-03-17T08:29:54;6.93;;;5.83;;
11807;SDS011;5961;42.640;23.380;2023-03-17T08:32:21;7.67;;;5.70;;
11807;SDS011;5961;42.640;23.380;2023-03-17T08:34:51;7.23;;;5.80;;
11807;SDS011;5961;42.640;23.380;2023-03-17T08:37:18;7.97;;;5.80;;
11807;SDS011;5961;42.640;23.380;2023-03-17T08:39:47;8.00;;;6.33;;
11807;SDS011;5961;42.640;23.380;2023-03-17T08:42:14;7.27;;;5.97;;
11807;SDS011;5961;42.640;23.380;2023-03-17T08:44:41;7.63;;;5.40;;
11807;SDS011;5961;42.640;23.380;2023-03-17T08:47:08;8.87;;;6.23;;
11807;SDS011;5961;42.640;23.380;2023-03-17T08:49:34;7.90;;;6.10;;
11807;SDS011;5961;42.640;23.380;2023-03-17T08:52:01;9.77;;;5.83;;
11807;SDS011;5961;42.640;23.380;2023-03-17T08:54:28;9.20;;;5.87;;
11807;SDS011;5961;42.640;23.380;2023-03-17T08:56:57;9.00;;;6.17;;
11807;SDS011;5961;42.640;23.380;2023-03-17T08:59:25;7.70;;;5.43;;
11807;SDS011;5961;42.640;23.380;2023-03-17T09:01:52;10.07;;;7.03;;
11807;SDS011;5961;42.640;23.380;2023-03-17T09:04:19;7.97;;;6.33;;
11807;SDS011;5961;42.640;23.380;2023-03-17T09:06:47;9.10;;;5.80;;
11807;SDS011;5961;42.640;23.380;2023-03-17T09:09:14;9.50;;;5.17;;
11807;SDS011;5961;42.640;23.380;2023-03-17T09:11:41;8.30;;;6.07;;
11807;SDS011;5961;42.640;23.380;2023-03-17T09:14:09;6.63;;;4.70;;
11807;SDS011;5961;42.640;23.380;2023-03-17T09:16:36;6.43;;;4.33;;
11807;SDS011;5961;42.640;23.380;2023-03-17T09:19:03;6.17;;;4.80;;
11807;SDS011;5961;42.640;23.380;2023-03-17T09:21:30;5.67;;;4.90;;
11807;SDS011;5961;42.640;23.380;2023-03-17T09:23:57;5.13;;;4.33;;
11807;SDS011;5961;42.640;23.380;2023-03-17T09:26:24;7.30;;;4.80;;
11807;SDS011;5961;42.640;23.380;2023-03-17T09:28:50;6.43;;;5.23;;
11807;SDS011;5961;42.640;23.380;2023-03-17T09:31:19;6.57;;;4.80;;
11807;SDS011;5961;42.640;23.380;2023-03-17T09:33:45;7.07;;;5.00;;
11807;SDS011;5961;42.640;23.380;2023-03-17T09:36:12;12.83;;;7.70;;
11807;SDS011;5961;42.640;23.380;2023-03-17T09:38:39;8.83;;;7.00;;
11807;SDS011;5961;42.640;23.380;2023-03-17T09:41:12;5.27;;;4.00;;
11807;SDS011;5961;42.640;23.380;2023-03-17T09:44:05;4.67;;;3.90;;
11807;SDS011;5961;42.640;23.380;2023-03-17T09:46:43;6.03;;;5.30;;
11807;SDS011;5961;42.640;23.380;2023-03-17T09:49:17;10.37;;;5.63;;
11807;SDS011;5961;42.640;23.380;2023-03-17T09:51:47;6.67;;;5.40;;
11807;SDS011;5961;42.640;23.380;2023-03-17T09:54:15;7.07;;;4.90;;
11807;SDS011;5961;42.640;23.380;2023-03-17T09:56:50;7.20;;;4.40;;
11807;SDS011;5961;42.640;23.380;2023-03-17T09:59:27;6.53;;;4.73;;
11807;SDS011;5961;42.640;23.380;2023-03-17T10:01:56;5.80;;;4.90;;
11807;SDS011;5961;42.640;23.380;2023-03-17T10:04:24;5.13;;;3.93;;
11807;SDS011;5961;42.640;23.380;2023-03-17T10:06:51;5.40;;;4.63;;
11807;SDS011;5961;42.640;23.380;2023-03-17T10:09:28;5.33;;;4.60;;
11807;SDS011;5961;42.640;23.380;2023-03-17T10:12:01;7.33;;;4.17;;
11807;SDS011;5961;42.640;23.380;2023-03-17T10:14:43;5.67;;;4.40;;
11807;SDS011;5961;42.640;23.380;2023-03-17T10:17:19;7.27;;;4.57;;
11807;SDS011;5961;42.640;23.380;2023-03-17T10:19:49;7.37;;;5.23;;
11807;SDS011;5961;42.640;23.380;2023-03-17T10:22:24;5.00;;;4.20;;
11807;SDS011;5961;42.640;23.380;2023-03-17T10:24:56;6.40;;;4.50;;
11807;SDS011;5961;42.640;23.380;2023-03-17T10:27:27;6.50;;;4.37;;
11807;SDS011;5961;42.640;23.380;2023-03-17T10:29:59;8.10;;;4.17;;
11807;SDS011;5961;42.640;23.380;2023-03-17T10:32:27;7.27;;;4.70;;
11807;SDS011;5961;42.640;23.380;2023-03-17T10:34:57;6.17;;;4.37;;
11807;SDS011;5961;42.640;23.380;2023-03-17T10:37:23;4.23;;;3.83;;
11807;SDS011;5961;42.640;23.380;2023-03-17T10:39:51;4.83;;;4.10;;
11807;SDS011;5961;42.640;23.380;2023-03-17T10:42:21;5.77;;;4.40;;
11807;SDS011;5961;42.640;23.380;2023-03-17T10:44:51;8.20;;;4.07;;
11807;SDS011;5961;42.640;23.380;2023-03-17T10:47:24;9.40;;;5.50;;
11807;SDS011;5961;42.640;23.380;2023-03-17T10:49:57;5.60;;;4.53;;
11807;SDS011;5961;42.640;23.380;2023-03-17T10:52:27;8.33;;;5.00;;
11807;SDS011;5961;42.640;23.380;2023-03-17T10:54:59;6.87;;;4.77;;
11807;SDS011;5961;42.640;23.380;2023-03-17T10:57:27;6.20;;;4.73;;
11807;SDS011;5961;42.640;23.380;2023-03-17T10:59:55;7.27;;;4.23;;
11807;SDS011;5961;42.640;23.380;2023-03-17T11:02:25;6.43;;;4.87;;
11807;SDS011;5961;42.640;23.380;2023-03-17T11:04:57;8.47;;;5.20;;
11807;SDS011;5961;42.640;23.380;2023-03-17T11:07:26;6.17;;;5.30;;
11807;SDS011;5961;42.640;23.380;2023-03-17T11:09:57;8.40;;;5.60;;
11807;SDS011;5961;42.640;23.380;2023-03-17T11:12:27;7.23;;;5.47;;
11807;SDS011;5961;42.640;23.380;2023-03-17T11:14:59;6.47;;;4.90;;
11807;SDS011;5961;42.640;23.380;2023-03-17T11:17:37;7.23;;;5.07;;
11807;SDS011;5961;42.640;23.380;2023-03-17T11:20:14;11.20;;;4.80;;
11807;SDS011;5961;42.640;23.380;2023-03-17T11:23:08;9.63;;;5.10;;
11807;SDS011;5961;42.640;23.380;2023-03-17T11:25:46;7.93;;;5.13;;
11807;SDS011;5961;42.640;23.380;2023-03-17T11:28:20;5.47;;;4.57;;
11807;SDS011;5961;42.640;23.380;2023-03-17T11:30:54;9.03;;;6.57;;
11807;SDS011;5961;42.640;23.380;2023-03-17T11:33:32;8.17;;;5.87;;
11807;SDS011;5961;42.640;23.380;2023-03-17T11:36:04;11.87;;;7.73;;
11807;SDS011;5961;42.640;23.380;2023-03-17T11:38:41;10.30;;;7.73;;
11807;SDS011;5961;42.640;23.380;2023-03-17T11:41:15;11.03;;;5.90;;
11807;SDS011;5961;42.640;23.380;2023-03-17T11:44:04;8.30;;;5.20;;
11807;SDS011;5961;42.640;23.380;2023-03-17T11:46:55;9.50;;;5.40;;
11807;SDS011;5961;42.640;23.380;2023-03-17T11:49:29;7.07;;;5.50;;
11807;SDS011;5961;42.640;23.380;2023-03-17T11:52:03;6.40;;;4.90;;
11807;SDS011;5961;42.640;23.380;2023-03-17T11:54:39;6.27;;;5.00;;
11807;SDS011;5961;42.640;23.380;2023-03-17T11:57:13;6.57;;;4.50;;
11807;SDS011;5961;42.640;23.380;2023-03-17T11:59:44;16.33;;;8.93;;
11807;SDS011;5961;42.640;23.380;2023-03-17T12:02:19;7.20;;;5.60;;
11807;SDS011;5961;42.640;23.380;2023-03-17T12:04:52;12.90;;;6.23;;
11807;SDS011;5961;42.640;23.380;2023-03-17T12:07:24;10.43;;;6.00;;
11807;SDS011;5961;42.640;23.380;2023-03-17T12:09:55;7.63;;;5.33;;
11807;SDS011;5961;42.640;23.380;2023-03-17T12:12:29;10.67;;;5.90;;
11807;SDS011;5961;42.640;23.380;2023-03-17T12:15:02;9.60;;;5.90;;
11807;SDS011;5961;42.640;23.380;2023-03-17T12:17:33;13.00;;;6.07;;
11807;SDS011;5961;42.640;23.380;2023-03-17T12:20:06;6.40;;;5.30;;
11807;SDS011;5961;42.640;23.380;2023-03-17T12:22:43;7.47;;;5.13;;
11807;SDS011;5961;42.640;23.380;2023-03-17T12:25:15;10.03;;;5.03;;
11807;SDS011;5961;42.640;23.380;2023-03-17T12:27:51;17.03;;;6.23;;
11807;SDS011;5961;42.640;23.380;2023-03-17T12:30:26;11.87;;;6.47;;
11807;SDS011;5961;42.640;23.380;2023-03-17T12:32:59;7.07;;;5.57;;
11807;SDS011;5961;42.640;23.380;2023-03-17T12:35:36;7.77;;;5.40;;
11807;SDS011;5961;42.640;23.380;2023-03-17T12:38:06;7.97;;;5.77;;
11807;SDS011;5961;42.640;23.380;2023-03-17T12:40:40;9.30;;;6.50;;
11807;SDS011;5961;42.640;23.380;2023-03-17T12:43:27;10.23;;;6.33;;
11807;SDS011;5961;42.640;23.380;2023-03-17T12:49:03;7.53;;;5.53;;
11807;SDS011;5961;42.640;23.380;2023-03-17T12:51:54;11.90;;;6.27;;
11807;SDS011;5961;42.640;23.380;2023-03-17T12:54:35;8.60;;;5.50;;
11807;SDS011;5961;42.640;23.380;2023-03-17T12:57:05;7.43;;;5.17;;
11807;SDS011;5961;42.640;23.380;2023-03-17T12:59:40;5.80;;;4.70;;
11807;SDS011;5961;42.640;23.380;2023-03-17T13:02:12;6.93;;;3.33;;
11807;SDS011;5961;42.640;23.380;2023-03-17T13:04:46;4.27;;;3.37;;
11807;SDS011;5961;42.640;23.380;2023-03-17T13:07:18;5.07;;;3.27;;
11807;SDS011;5961;42.640;23.380;2023-03-17T13:09:50;5.23;;;3.00;;
11807;SDS011;5961;42.640;23.380;2023-03-17T13:18:28;3.80;;;2.50;;
11807;SDS011;5961;42.640;23.380;2023-03-17T13:21:12;2.60;;;2.40;;
11807;SDS011;5961;42.640;23.380;2023-03-17T13:23:42;2.33;;;2.13;;
11807;SDS011;5961;42.640;23.380;2023-03-17T13:26:13;3.37;;;2.20;;
11807;SDS011;5961;42.640;23.380;2023-03-17T13:28:44;2.70;;;2.50;;
11807;SDS011;5961;42.640;23.380;2023-03-17T13:31:14;3.90;;;2.90;;
11807;SDS011;5961;42.640;23.380;2023-03-17T13:34:01;3.00;;;2.70;;
11807;SDS011;5961;42.640;23.380;2023-03-17T13:36:38;3.30;;;3.00;;
11807;SDS011;5961;42.640;23.380;2023-03-17T13:39:19;2.60;;;2.23;;
11807;SDS011;5961;42.640;23.380;2023-03-17T13:42:23;3.23;;;2.30;;
11807;SDS011;5961;42.640;23.380;2023-03-17T13:45:08;3.10;;;2.13;;
11807;SDS011;5961;42.640;23.380;2023-03-17T13:47:43;5.43;;;2.10;;
11807;SDS011;5961;42.640;23.380;2023-03-17T13:50:12;3.43;;;2.50;;
11807;SDS011;5961;42.640;23.380;2023-03-17T13:52:41;2.87;;;2.27;;
11807;SDS011;5961;42.640;23.380;2023-03-17T13:55:31;2.63;;;2.13;;
11807;SDS011;5961;42.640;23.380;2023-03-17T14:00:48;2.20;;;2.00;;
11807;SDS011;5961;42.640;23.380;2023-03-17T14:03:25;3.37;;;1.87;;
11807;SDS011;5961;42.640;23.380;2023-03-17T14:05:56;4.20;;;2.13;;
11807;SDS011;5961;42.640;23.380;2023-03-17T14:08:28;2.37;;;1.77;;
11807;SDS011;5961;42.640;23.380;2023-03-17T14:10:58;1.87;;;1.77;;
11807;SDS011;5961;42.640;23.380;2023-03-17T14:13:28;2.93;;;2.00;;
11807;SDS011;5961;42.640;23.380;2023-03-17T14:16:01;2.30;;;1.90;;
11807;SDS011;5961;42.640;23.380;2023-03-17T14:18:35;2.07;;;1.83;;
11807;SDS011;5961;42.640;23.380;2023-03-17T14:21:05;2.20;;;2.00;;
11807;SDS011;5961;42.640;23.380;2023-03-17T14:23:50;2.30;;;2.10;;
11807;SDS011;5961;42.640;23.380;2023-03-17T14:26:18;2.40;;;2.20;;
11807;SDS011;5961;42.640;23.380;2023-03-17T14:28:48;2.20;;;2.00;;
11807;SDS011;5961;42.640;23.380;2023-03-17T14:31:18;1.77;;;1.63;;
11807;SDS011;5961;42.640;23.380;2023-03-17T14:33:49;2.10;;;2.00;;
11807;SDS011;5961;42.640;23.380;2023-03-17T14:36:17;2.33;;;1.90;;
11807;SDS011;5961;42.640;23.380;2023-03-17T14:38:46;2.10;;;1.90;;
11807;SDS011;5961;42.640;23.380;2023-03-17T14:41:17;4.03;;;2.00;;
11807;SDS011;5961;42.640;23.380;2023-03-17T14:43:45;2.50;;;2.07;;
11807;SDS011;5961;42.640;23.380;2023-03-17T14:46:14;2.83;;;2.40;;
11807;SDS011;5961;42.640;23.380;2023-03-17T14:48:47;2.23;;;2.03;;
11807;SDS011;5961;42.640;23.380;2023-03-17T14:51:19;2.93;;;1.60;;
11807;SDS011;5961;42.640;23.380;2023-03-17T14:53:51;2.73;;;1.90;;
11807;SDS011;5961;42.640;23.380;2023-03-17T14:56:20;2.63;;;2.10;;
11807;SDS011;5961;42.640;23.380;2023-03-17T14:58:50;2.50;;;2.30;;
11807;SDS011;5961;42.640;23.380;2023-03-17T15:01:19;2.20;;;2.00;;
11807;SDS011;5961;42.640;23.380;2023-03-17T15:03:58;2.40;;;2.20;;
11807;SDS011;5961;42.640;23.380;2023-03-17T15:06:32;4.43;;;2.10;;
11807;SDS011;5961;42.640;23.380;2023-03-17T15:09:01;5.17;;;2.80;;
11807;SDS011;5961;42.640;23.380;2023-03-17T15:11:35;4.83;;;4.07;;
11807;SDS011;5961;42.640;23.380;2023-03-17T15:14:04;2.93;;;2.73;;
11807;SDS011;5961;42.640;23.380;2023-03-17T15:16:41;6.07;;;2.70;;
11807;SDS011;5961;42.640;23.380;2023-03-17T15:19:17;3.10;;;2.80;;